Time;durP1;ratioP1;P1;durP2;ratioP2;P2;SDS_P1;SDS_P2;PMS_P1;PMS_P2;Temp;Humidity;BMP_temperature;BMP_pressure;BME280_temperature;BME280_humidity;BME280_pressure;Samples;Min_cycle;Max_cycle;Signal;HPM_P1;HPM_P2
2021/07/09 00:01:59;;;;;;;13.63;7.40;;;20.80;76.20;;;;;;5111480;28;20044;-73
2021/07/09 00:04:28;;;;;;;15.60;8.68;;;20.80;76.40;;;;;;5114891;27;20035;-72
2021/07/09 00:06:55;;;;;;;16.30;9.25;;;20.80;76.50;;;;;;5111247;28;20035;-72
2021/07/09 00:09:21;;;;;;;14.70;7.95;;;20.80;76.70;;;;;;5112412;28;20080;-72
2021/07/09 00:11:53;;;;;;;15.55;8.32;;;20.70;76.80;;;;;;5107733;28;20039;-72
2021/07/09 00:14:23;;;;;;;13.27;7.63;;;20.70;76.90;;;;;;5106379;28;20031;-72
2021/07/09 00:16:50;;;;;;;14.02;7.07;;;20.70;76.90;;;;;;5092238;28;20356;-72
2021/07/09 00:19:16;;;;;;;12.30;7.68;;;20.70;76.50;;;;;;5122815;27;20058;-72
2021/07/09 00:21:42;;;;;;;18.30;7.13;;;20.70;76.40;;;;;;5121373;27;20074;-72
2021/07/09 00:24:08;;;;;;;12.75;8.23;;;20.60;76.40;;;;;;5131830;27;20509;-72
2021/07/09 00:26:35;;;;;;;184.98;9.70;;;20.60;76.70;;;;;;5094098;28;20126;-72
2021/07/09 00:29:02;;;;;;;88.35;8.48;;;20.60;76.60;;;;;;5113116;28;20390;-72
2021/07/09 00:31:29;;;;;;;17.90;7.97;;;20.50;76.50;;;;;;5111194;28;20038;-72
2021/07/09 00:33:56;;;;;;;23.38;8.65;;;20.60;76.80;;;;;;5105817;28;20027;-72
2021/07/09 00:36:22;;;;;;;352.10;11.93;;;20.50;76.90;;;;;;5093613;28;20024;-72
2021/07/09 00:38:48;;;;;;;72.78;6.70;;;20.50;76.80;;;;;;5112502;28;20067;-72
2021/07/09 00:41:18;;;;;;;17.40;6.10;;;20.40;76.50;;;;;;5112639;28;20115;-72
2021/07/09 00:43:44;;;;;;;411.35;10.73;;;20.40;76.40;;;;;;5112695;28;20024;-72
2021/07/09 00:46:10;;;;;;;74.65;5.57;;;20.40;76.20;;;;;;5116336;28;20047;-72
2021/07/09 00:48:36;;;;;;;79.38;7.53;;;20.40;76.10;;;;;;5115960;28;20031;-72
2021/07/09 00:51:07;;;;;;;15.05;6.63;;;20.30;76.10;;;;;;5122088;27;20110;-72
2021/07/09 00:53:33;;;;;;;15.77;7.43;;;20.30;76.20;;;;;;5116583;27;20029;-72
2021/07/09 00:56:00;;;;;;;22.98;8.90;;;20.30;76.40;;;;;;5115005;28;20031;-72
2021/07/09 00:58:26;;;;;;;71.05;10.30;;;20.30;76.60;;;;;;5118858;27;20027;-72
2021/07/09 01:00:52;;;;;;;27.13;9.93;;;20.20;76.50;;;;;;5114278;28;20038;-72
2021/07/09 01:03:20;;;;;;;141.20;10.50;;;20.20;76.80;;;;;;5115875;28;20116;-72
2021/07/09 01:05:46;;;;;;;20.30;9.52;;;20.10;76.90;;;;;;5107884;28;20026;-72
2021/07/09 01:08:12;;;;;;;20.17;8.88;;;20.20;77.00;;;;;;5116902;27;20027;-72
2021/07/09 01:10:41;;;;;;;19.77;6.93;;;20.10;77.00;;;;;;5106296;27;20047;-72
2021/07/09 01:13:07;;;;;;;11.60;7.00;;;20.10;77.00;;;;;;5119446;27;20043;-72
2021/07/09 01:15:32;;;;;;;10.93;5.63;;;20.00;76.70;;;;;;5123029;27;20472;-72
2021/07/09 01:17:58;;;;;;;11.07;6.05;;;19.90;76.60;;;;;;5107617;28;20111;-72
2021/07/09 01:20:24;;;;;;;16.95;6.82;;;19.90;76.60;;;;;;5110422;28;20036;-72
2021/07/09 01:22:50;;;;;;;18.77;7.72;;;19.80;76.60;;;;;;5117061;27;20042;-72
2021/07/09 01:25:27;;;;;;;17.02;7.55;;;19.80;76.70;;;;;;5117956;27;20482;-72
2021/07/09 01:27:57;;;;;;;23.35;7.93;;;19.80;76.70;;;;;;5121177;27;20102;-72
2021/07/09 01:30:26;;;;;;;17.42;8.70;;;19.70;76.60;;;;;;5115575;28;20027;-72
2021/07/09 01:32:53;;;;;;;19.52;9.02;;;19.70;76.70;;;;;;5114430;28;20434;-72
2021/07/09 01:35:20;;;;;;;15.35;7.95;;;19.70;76.80;;;;;;5114501;28;20110;-72
2021/07/09 01:37:54;;;;;;;43.63;7.18;;;19.60;76.50;;;;;;5116724;27;20027;-72
2021/07/09 01:40:20;;;;;;;77.50;7.70;;;19.70;76.20;;;;;;5114281;27;20127;-72
2021/07/09 01:42:46;;;;;;;13.35;7.40;;;19.70;76.10;;;;;;5115292;27;20028;-72
2021/07/09 01:45:12;;;;;;;32.42;8.82;;;19.60;76.10;;;;;;5115371;28;20035;-72
2021/07/09 01:47:38;;;;;;;19.98;8.63;;;19.70;76.40;;;;;;5122950;27;20119;-73
2021/07/09 01:50:05;;;;;;;13.88;8.20;;;19.70;76.70;;;;;;5121548;27;20023;-72
2021/07/09 01:52:31;;;;;;;89.22;8.15;;;19.60;77.40;;;;;;5118739;27;20485;-72
2021/07/09 01:55:00;;;;;;;20.05;8.13;;;19.60;76.50;;;;;;5122731;27;20035;-72
2021/07/09 01:57:27;;;;;;;23.23;6.72;;;19.50;76.50;;;;;;5115134;28;20751;-72
2021/07/09 01:59:59;;;;;;;11.90;5.35;;;19.60;76.40;;;;;;5114866;28;20066;-72
2021/07/09 02:02:25;;;;;;;28.92;5.97;;;19.50;76.10;;;;;;5114121;28;20047;-73
2021/07/09 02:04:53;;;;;;;20.15;8.38;;;19.40;75.90;;;;;;5122347;27;20031;-72
2021/07/09 02:07:20;;;;;;;15.05;8.43;;;19.50;76.10;;;;;;5113028;27;20027;-72
2021/07/09 02:09:58;;;;;;;16.48;9.02;;;19.50;76.30;;;;;;5103714;27;20081;-73
2021/07/09 02:12:26;;;;;;;20.52;9.02;;;19.40;76.70;;;;;;5118358;27;20120;-72
2021/07/09 02:14:53;;;;;;;19.80;8.48;;;19.30;76.90;;;;;;5111764;27;20032;-72
2021/07/09 02:17:21;;;;;;;22.33;8.18;;;19.30;76.90;;;;;;5102645;28;20042;-72
2021/07/09 02:19:48;;;;;;;19.55;9.15;;;19.30;77.00;;;;;;5116759;27;20031;-72
2021/07/09 02:22:19;;;;;;;15.30;8.65;;;19.30;77.10;;;;;;5104721;28;20554;-72
2021/07/09 02:24:47;;;;;;;22.35;9.80;;;19.20;77.30;;;;;;5120784;27;20023;-73
2021/07/09 02:27:13;;;;;;;14.38;8.48;;;19.30;77.60;;;;;;5112944;27;20039;-73
2021/07/09 02:29:42;;;;;;;19.13;8.68;;;19.20;77.60;;;;;;5116203;27;20111;-72
2021/07/09 02:32:10;;;;;;;15.55;8.68;;;19.20;77.50;;;;;;5116373;27;20074;-73
2021/07/09 02:34:37;;;;;;;15.00;8.00;;;19.10;77.40;;;;;;5105118;28;20524;-73
2021/07/09 02:37:09;;;;;;;14.85;8.02;;;19.10;77.60;;;;;;5104776;28;20055;-72
2021/07/09 02:39:35;;;;;;;18.63;8.43;;;19.10;77.70;;;;;;5109667;27;20027;-73
2021/07/09 02:42:01;;;;;;;16.10;8.07;;;19.00;77.70;;;;;;5115098;28;20097;-72
2021/07/09 02:44:27;;;;;;;16.40;8.13;;;19.00;77.70;;;;;;5118460;27;20031;-73
2021/07/09 02:46:54;;;;;;;22.30;7.60;;;19.00;77.70;;;;;;5123553;27;20425;-72
2021/07/09 02:49:21;;;;;;;18.10;7.88;;;18.90;77.80;;;;;;5113574;28;20056;-72
2021/07/09 02:51:47;;;;;;;24.08;8.65;;;18.90;77.90;;;;;;5114403;27;20024;-73
2021/07/09 02:54:13;;;;;;;18.38;8.40;;;18.90;78.00;;;;;;5110400;28;20493;-72
2021/07/09 02:56:39;;;;;;;15.60;8.15;;;18.90;78.00;;;;;;5110549;28;20069;-73
2021/07/09 02:59:05;;;;;;;13.20;8.68;;;18.90;78.00;;;;;;5112984;27;20402;-73
2021/07/09 03:01:30;;;;;;;16.38;7.68;;;18.90;78.10;;;;;;5112513;28;20394;-73
2021/07/09 03:03:56;;;;;;;15.05;8.25;;;18.90;78.20;;;;;;5115720;27;20513;-72
2021/07/09 03:06:25;;;;;;;18.42;8.65;;;18.90;78.10;;;;;;5113817;27;20030;-72
2021/07/09 03:08:50;;;;;;;15.18;9.18;;;18.90;78.20;;;;;;5113644;28;20502;-72
2021/07/09 03:11:20;;;;;;;21.05;9.30;;;18.90;78.30;;;;;;5112641;28;20487;-72
2021/07/09 03:13:45;;;;;;;16.65;11.05;;;18.80;78.40;;;;;;5122218;27;20034;-72
2021/07/09 03:16:11;;;;;;;21.67;9.95;;;18.80;78.70;;;;;;5119831;27;20032;-72
2021/07/09 03:18:36;;;;;;;14.43;9.30;;;18.90;78.70;;;;;;5094936;28;20026;-72
2021/07/09 03:21:03;;;;;;;16.17;9.07;;;18.80;79.00;;;;;;5121569;27;20425;-72
2021/07/09 03:23:28;;;;;;;19.95;8.90;;;18.80;79.10;;;;;;5112740;27;20065;-72
2021/07/09 03:25:57;;;;;;;21.48;11.40;;;18.80;79.10;;;;;;5116478;27;20024;-72
2021/07/09 03:28:23;;;;;;;16.10;9.65;;;18.80;79.50;;;;;;5119596;27;20030;-72
2021/07/09 03:30:49;;;;;;;17.63;8.65;;;18.80;79.70;;;;;;5113072;28;20114;-72
2021/07/09 03:33:14;;;;;;;17.02;9.57;;;18.80;79.80;;;;;;5112469;28;20031;-72
2021/07/09 03:35:40;;;;;;;22.15;10.88;;;18.80;79.90;;;;;;5124379;27;20412;-72
2021/07/09 03:38:06;;;;;;;16.15;10.05;;;18.80;79.90;;;;;;5121085;27;20471;-72
2021/07/09 03:40:32;;;;;;;17.85;10.32;;;18.80;80.20;;;;;;5121302;27;20011;-73
2021/07/09 03:42:58;;;;;;;18.48;10.50;;;18.80;80.40;;;;;;5122469;27;20024;-72
2021/07/09 03:45:24;;;;;;;20.52;11.27;;;18.80;80.70;;;;;;5111464;28;20023;-73
2021/07/09 03:47:50;;;;;;;17.80;10.27;;;18.80;81.00;;;;;;5112603;28;20035;-72
2021/07/09 03:50:18;;;;;;;20.33;9.70;;;18.80;81.10;;;;;;5113433;27;20027;-72
2021/07/09 03:52:44;;;;;;;23.55;10.85;;;18.80;81.10;;;;;;5108080;28;20028;-72
2021/07/09 03:55:10;;;;;;;22.75;11.40;;;18.80;81.10;;;;;;5103570;28;20047;-72
2021/07/09 03:57:36;;;;;;;20.67;12.20;;;18.80;81.30;;;;;;5113153;27;20023;-72
2021/07/09 04:00:05;;;;;;;26.42;12.05;;;18.80;81.60;;;;;;5109481;27;20032;-72
2021/07/09 04:02:39;;;;;;;23.05;12.63;;;18.80;82.00;;;;;;5112916;27;20039;-72
2021/07/09 04:05:05;;;;;;;21.38;12.55;;;18.80;82.20;;;;;;5114260;27;20474;-72
2021/07/09 04:07:31;;;;;;;22.25;12.93;;;18.90;82.50;;;;;;5110656;28;20070;-72
2021/07/09 04:09:57;;;;;;;21.90;13.20;;;18.90;82.70;;;;;;5121192;27;20055;-72
2021/07/09 04:12:23;;;;;;;23.65;13.27;;;18.90;82.80;;;;;;5112612;28;20110;-72
2021/07/09 04:14:51;;;;;;;23.70;12.80;;;18.90;82.90;;;;;;5113490;28;20516;-72
2021/07/09 04:17:17;;;;;;;20.40;12.15;;;18.90;83.00;;;;;;5100384;28;20028;-73
2021/07/09 04:19:42;;;;;;;17.38;11.10;;;18.90;83.00;;;;;;5115222;27;20343;-72
2021/07/09 04:22:09;;;;;;;22.13;11.93;;;18.90;83.20;;;;;;5110537;28;20048;-72
2021/07/09 04:24:35;;;;;;;24.98;11.82;;;18.90;83.50;;;;;;5112366;28;20103;-72
2021/07/09 04:27:00;;;;;;;20.55;12.50;;;18.90;83.70;;;;;;5113523;28;20058;-72
2021/07/09 04:29:26;;;;;;;21.27;12.48;;;18.90;84.00;;;;;;5113465;28;20023;-72
2021/07/09 04:31:52;;;;;;;22.77;12.38;;;18.90;84.20;;;;;;5111913;28;20024;-72
2021/07/09 04:34:23;;;;;;;20.13;13.25;;;18.90;84.40;;;;;;5097650;28;20485;-72
2021/07/09 04:36:49;;;;;;;20.40;12.77;;;18.90;84.80;;;;;;5103747;28;20043;-73
2021/07/09 04:39:15;;;;;;;22.20;13.27;;;19.00;85.00;;;;;;5103336;28;20040;-73
2021/07/09 04:41:40;;;;;;;26.55;13.63;;;18.90;85.20;;;;;;5105269;28;20146;-72
2021/07/09 04:44:06;;;;;;;21.52;12.80;;;18.90;85.50;;;;;;5103449;28;20114;-72
2021/07/09 04:46:32;;;;;;;22.33;13.15;;;18.90;85.60;;;;;;5108053;28;20037;-72
2021/07/09 04:48:57;;;;;;;23.70;12.13;;;18.90;85.90;;;;;;5115320;28;20026;-72
2021/07/09 04:51:23;;;;;;;26.70;12.25;;;18.90;85.90;;;;;;5116743;28;20440;-72
2021/07/09 04:53:49;;;;;;;20.90;12.80;;;19.00;86.00;;;;;;5118932;28;20782;-73
2021/07/09 04:56:14;;;;;;;17.75;11.68;;;19.00;86.20;;;;;;5115338;28;20061;-72
2021/07/09 04:58:40;;;;;;;18.08;12.20;;;19.00;86.30;;;;;;5115454;28;20024;-72
2021/07/09 05:01:06;;;;;;;18.83;11.70;;;19.00;86.40;;;;;;5117109;28;20020;-72
2021/07/09 05:03:31;;;;;;;19.48;11.82;;;19.10;86.60;;;;;;5114456;28;20024;-72
2021/07/09 05:06:00;;;;;;;18.42;12.40;;;19.00;86.60;;;;;;5119411;28;20104;-72
2021/07/09 05:08:26;;;;;;;19.33;12.57;;;19.00;86.60;;;;;;5112098;28;20453;-72
2021/07/09 05:10:51;;;;;;;25.15;13.13;;;19.00;86.60;;;;;;5112730;28;20058;-72
2021/07/09 05:13:17;;;;;;;23.38;13.85;;;19.00;86.70;;;;;;5112332;28;20035;-72
2021/07/09 05:15:43;;;;;;;22.17;13.43;;;19.10;86.80;;;;;;5111950;28;20012;-72
2021/07/09 05:18:09;;;;;;;28.50;13.20;;;19.10;86.90;;;;;;5111789;28;20024;-75
2021/07/09 05:20:35;;;;;;;20.67;13.27;;;19.10;86.90;;;;;;5124867;28;20031;-74
2021/07/09 05:23:00;;;;;;;15.68;10.18;;;19.10;87.00;;;;;;5114268;28;20040;-78
2021/07/09 05:25:26;;;;;;;16.65;11.35;;;19.10;86.90;;;;;;5116528;28;20051;-78
2021/07/09 05:27:52;;;;;;;14.52;9.60;;;19.10;86.90;;;;;;5122217;28;20496;-77
2021/07/09 05:30:18;;;;;;;23.77;12.57;;;19.10;86.90;;;;;;5121616;27;20106;-74
2021/07/09 05:32:47;;;;;;;19.38;11.60;;;19.20;86.90;;;;;;5121701;27;20046;-73
2021/07/09 05:35:13;;;;;;;17.00;11.35;;;19.20;86.70;;;;;;5125159;27;20035;-72
2021/07/09 05:37:39;;;;;;;15.48;9.45;;;19.20;86.70;;;;;;5117316;27;20030;-71
2021/07/09 05:40:06;;;;;;;17.67;9.80;;;19.20;87.40;;;;;;5120836;27;20457;-72
2021/07/09 05:42:35;;;;;;;18.90;10.55;;;19.20;86.80;;;;;;5125853;27;20477;-72
2021/07/09 05:45:00;;;;;;;21.73;11.73;;;19.20;86.70;;;;;;5123623;27;20072;-72
2021/07/09 05:47:26;;;;;;;14.13;9.57;;;19.30;86.70;;;;;;5123783;27;20432;-71
2021/07/09 05:49:53;;;;;;;18.15;11.00;;;19.30;86.60;;;;;;5118197;27;20076;-72
2021/07/09 05:52:18;;;;;;;15.93;9.25;;;19.30;86.60;;;;;;5120521;27;20501;-73
2021/07/09 05:54:44;;;;;;;18.10;10.50;;;19.30;86.70;;;;;;5114404;28;20023;-73
2021/07/09 05:57:10;;;;;;;18.85;12.38;;;19.30;86.70;;;;;;5112202;27;20156;-74
2021/07/09 05:59:37;;;;;;;19.88;12.00;;;19.30;86.70;;;;;;5119168;27;20160;-72
2021/07/09 06:02:04;;;;;;;16.13;9.88;;;19.40;86.70;;;;;;5122431;27;20075;-78
2021/07/09 06:04:29;;;;;;;23.52;12.18;;;19.30;86.70;;;;;;5124268;27;20106;-73
2021/07/09 06:06:55;;;;;;;16.50;9.52;;;19.30;86.80;;;;;;5124834;27;20485;-77
2021/07/09 06:09:24;;;;;;;23.10;12.75;;;19.30;86.90;;;;;;5122596;27;20416;-78
2021/07/09 06:11:50;;;;;;;23.42;11.93;;;19.40;86.90;;;;;;5121870;27;20493;-77
2021/07/09 06:14:15;;;;;;;23.25;11.02;;;19.40;86.90;;;;;;5121801;27;20114;-73
2021/07/09 06:16:41;;;;;;;17.80;11.43;;;19.40;86.80;;;;;;5119546;27;20055;-79
2021/07/09 06:19:07;;;;;;;29.30;10.90;;;19.40;86.60;;;;;;5122012;27;20047;-79
2021/07/09 06:21:33;;;;;;;19.10;10.60;;;19.40;86.30;;;;;;5126258;27;20508;-76
2021/07/09 06:23:59;;;;;;;19.05;11.82;;;19.40;85.90;;;;;;5123499;27;20041;-75
2021/07/09 06:26:24;;;;;;;17.40;9.75;;;19.50;85.90;;;;;;5125043;27;20027;-74
2021/07/09 06:28:53;;;;;;;18.85;10.48;;;19.40;85.70;;;;;;5123579;27;20535;-75
2021/07/09 06:31:19;;;;;;;16.77;9.73;;;19.50;85.80;;;;;;5128495;27;20031;-75
2021/07/09 06:33:45;;;;;;;36.45;11.13;;;19.40;85.60;;;;;;5118603;27;20027;-73
2021/07/09 06:36:11;;;;;;;19.45;10.20;;;19.50;85.80;;;;;;5120106;27;20028;-75
2021/07/09 06:38:42;;;;;;;20.15;12.93;;;19.50;85.60;;;;;;5121701;27;20345;-71
2021/07/09 06:41:08;;;;;;;18.02;10.88;;;19.50;85.50;;;;;;5112328;27;20135;-70
2021/07/09 06:43:34;;;;;;;20.08;13.82;;;19.60;85.90;;;;;;5121077;27;20106;-71
2021/07/09 06:46:00;;;;;;;21.50;13.25;;;19.60;86.30;;;;;;5122564;27;20110;-71
2021/07/09 06:48:26;;;;;;;13.35;8.15;;;19.60;86.50;;;;;;5109456;27;20072;-71
2021/07/09 06:50:51;;;;;;;13.10;9.32;;;19.70;86.80;;;;;;5111669;27;20043;-70
2021/07/09 06:53:17;;;;;;;16.35;9.98;;;19.70;86.60;;;;;;5113169;27;20027;-71
2021/07/09 06:55:43;;;;;;;16.45;10.45;;;19.60;86.60;;;;;;5110272;28;20027;-71
2021/07/09 06:58:08;;;;;;;19.35;11.95;;;19.70;86.60;;;;;;5109982;28;20501;-71
2021/07/09 07:00:38;;;;;;;21.33;12.77;;;19.70;86.50;;;;;;5110705;28;20023;-71
2021/07/09 07:03:05;;;;;;;16.55;10.57;;;19.70;86.70;;;;;;5115745;27;20036;-71
2021/07/09 07:05:31;;;;;;;14.73;10.02;;;19.80;86.80;;;;;;5107349;27;20023;-71
2021/07/09 07:07:56;;;;;;;16.27;10.00;;;19.80;86.30;;;;;;5121496;27;21092;-70
2021/07/09 07:10:22;;;;;;;12.77;9.00;;;19.90;86.20;;;;;;5107772;28;20375;-70
2021/07/09 07:12:48;;;;;;;11.48;7.10;;;19.90;86.20;;;;;;5111835;28;20031;-71
2021/07/09 07:15:14;;;;;;;12.90;6.15;;;19.90;86.00;;;;;;5118842;27;20466;-71
2021/07/09 07:17:40;;;;;;;10.57;5.35;;;20.00;85.80;;;;;;5111908;28;20599;-71
2021/07/09 07:20:06;;;;;;;10.82;6.15;;;20.10;85.10;;;;;;5121496;27;20035;-71
2021/07/09 07:22:32;;;;;;;8.07;5.25;;;20.10;85.10;;;;;;5116754;27;20066;-71
2021/07/09 07:24:57;;;;;;;10.65;5.90;;;20.10;85.00;;;;;;5112659;28;20031;-71
2021/07/09 07:27:24;;;;;;;11.45;7.60;;;20.10;84.90;;;;;;5117953;27;20420;-70
2021/07/09 07:29:51;;;;;;;10.05;6.75;;;20.20;85.10;;;;;;5105756;28;20038;-71
2021/07/09 07:32:16;;;;;;;15.63;6.60;;;20.20;85.00;;;;;;5113580;27;20023;-71
2021/07/09 07:34:42;;;;;;;9.25;6.22;;;20.20;85.00;;;;;;5113641;27;20020;-71
2021/07/09 07:37:09;;;;;;;12.48;6.90;;;20.20;85.00;;;;;;5116162;27;20432;-71
2021/07/09 07:39:35;;;;;;;13.70;5.82;;;20.30;85.00;;;;;;5111877;28;20054;-71
2021/07/09 07:42:02;;;;;;;9.82;5.47;;;20.40;84.80;;;;;;5113484;28;20044;-71
2021/07/09 07:44:27;;;;;;;9.73;5.72;;;20.30;84.30;;;;;;5111846;28;20114;-71
2021/07/09 07:46:55;;;;;;;10.52;4.93;;;20.40;84.20;;;;;;5112447;28;20118;-71
2021/07/09 07:49:22;;;;;;;10.02;6.15;;;20.40;83.80;;;;;;5113339;28;20035;-71
2021/07/09 07:51:50;;;;;;;8.15;4.55;;;20.50;83.80;;;;;;5112823;28;20023;-71
2021/07/09 07:54:16;;;;;;;11.63;5.50;;;20.40;83.10;;;;;;5116181;27;20398;-71
2021/07/09 07:56:41;;;;;;;7.03;4.63;;;20.50;83.10;;;;;;5115526;27;20061;-71
2021/07/09 07:59:07;;;;;;;8.02;5.20;;;20.50;82.80;;;;;;5116757;27;20525;-71
2021/07/09 08:01:33;;;;;;;7.80;5.63;;;20.50;82.50;;;;;;5113709;27;20054;-71
2021/07/09 08:03:59;;;;;;;9.45;5.43;;;20.50;82.40;;;;;;5113037;28;20046;-71
2021/07/09 08:06:24;;;;;;;7.07;4.50;;;20.60;82.20;;;;;;5111574;27;20019;-71
2021/07/09 08:08:50;;;;;;;9.90;5.22;;;20.60;81.90;;;;;;5105346;28;20390;-71
2021/07/09 08:11:16;;;;;;;11.48;4.78;;;20.60;81.70;;;;;;5110755;27;20015;-71
2021/07/09 08:13:41;;;;;;;8.95;5.22;;;20.60;82.00;;;;;;5105170;27;20500;-70
2021/07/09 08:16:09;;;;;;;8.70;5.95;;;20.70;82.10;;;;;;5122897;27;20098;-71
2021/07/09 08:18:35;;;;;;;9.10;4.85;;;20.70;82.10;;;;;;5123913;27;20359;-71
2021/07/09 08:21:01;;;;;;;9.60;5.45;;;20.80;81.90;;;;;;5122928;27;20039;-71
2021/07/09 08:23:28;;;;;;;8.90;5.18;;;20.80;81.80;;;;;;5120433;27;20095;-71
2021/07/09 08:25:53;;;;;;;11.02;5.40;;;20.80;81.60;;;;;;5123249;27;20118;-71
2021/07/09 08:28:20;;;;;;;11.45;5.45;;;20.90;81.40;;;;;;5119765;27;20118;-71
2021/07/09 08:30:46;;;;;;;9.88;5.50;;;20.90;81.00;;;;;;5117987;27;20506;-71
2021/07/09 08:33:12;;;;;;;8.13;4.97;;;20.90;81.60;;;;;;5122309;27;20166;-71
2021/07/09 08:35:38;;;;;;;7.30;4.63;;;20.90;81.20;;;;;;5120698;28;20080;-71
2021/07/09 08:38:04;;;;;;;8.35;5.05;;;21.00;80.60;;;;;;5127687;28;20041;-71
2021/07/09 08:40:30;;;;;;;8.18;4.72;;;21.00;80.60;;;;;;5125321;28;20023;-71
2021/07/09 08:42:55;;;;;;;6.95;4.57;;;21.10;80.20;;;;;;5127080;28;20033;-71
2021/07/09 08:45:21;;;;;;;7.82;5.20;;;21.10;80.10;;;;;;5134052;28;20023;-71
2021/07/09 08:47:48;;;;;;;8.52;5.00;;;21.10;80.00;;;;;;5117540;28;20031;-71
2021/07/09 08:50:13;;;;;;;8.88;5.57;;;21.20;79.60;;;;;;5119853;28;20000;-71
2021/07/09 08:52:40;;;;;;;9.48;5.07;;;21.20;79.70;;;;;;5120321;28;20432;-70
2021/07/09 08:55:12;;;;;;;8.32;5.32;;;21.20;79.70;;;;;;5122409;28;20032;-71
2021/07/09 08:57:48;;;;;;;10.15;5.32;;;21.30;80.40;;;;;;5124106;28;20043;-72
2021/07/09 09:00:32;;;;;;;7.90;4.35;;;21.40;79.80;;;;;;5118763;28;20094;-71
2021/07/09 09:02:58;;;;;;;8.65;5.53;;;21.40;79.40;;;;;;5122325;28;20031;-71
2021/07/09 09:05:26;;;;;;;7.22;4.53;;;21.40;79.40;;;;;;5120817;27;20031;-72
2021/07/09 09:08:04;;;;;;;7.55;4.40;;;21.50;79.00;;;;;;5127435;27;20034;-72
2021/07/09 09:10:50;;;;;;;18.27;4.40;;;21.50;78.70;;;;;;5120259;27;20075;-71
2021/07/09 09:13:21;;;;;;;11.73;6.70;;;21.50;78.50;;;;;;5126842;27;20028;-72
2021/07/09 09:16:05;;;;;;;8.43;4.80;;;21.60;78.10;;;;;;5120869;27;20107;-72
2021/07/09 09:18:35;;;;;;;8.88;5.03;;;21.60;78.60;;;;;;5126823;27;20058;-72
2021/07/09 09:21:09;;;;;;;9.40;4.70;;;21.70;78.40;;;;;;5127649;27;20028;-71
2021/07/09 09:23:38;;;;;;;5.90;4.15;;;21.70;78.30;;;;;;5123944;27;20055;-71
2021/07/09 09:26:06;;;;;;;6.28;4.40;;;21.70;78.00;;;;;;5128024;27;20077;-71
2021/07/09 09:28:36;;;;;;;10.57;5.50;;;21.70;77.20;;;;;;5126547;27;20439;-73
2021/07/09 09:31:02;;;;;;;13.45;5.90;;;21.70;77.20;;;;;;5111968;27;20031;-74
2021/07/09 09:33:33;;;;;;;8.27;4.85;;;21.80;77.30;;;;;;5130344;27;20024;-72
2021/07/09 09:36:04;;;;;;;8.38;5.30;;;21.90;76.80;;;;;;5110542;27;20050;-72
2021/07/09 09:38:29;;;;;;;9.32;5.40;;;21.90;76.60;;;;;;5130174;27;20050;-73
2021/07/09 09:40:57;;;;;;;9.57;5.85;;;21.90;76.40;;;;;;5122003;27;20032;-72
2021/07/09 09:43:30;;;;;;;6.60;4.97;;;22.00;76.20;;;;;;5121995;27;20141;-72
2021/07/09 09:46:03;;;;;;;9.35;5.90;;;22.00;76.20;;;;;;5122422;27;20039;-72
2021/07/09 09:48:45;;;;;;;;;;;22.00;76.10;;;;;;5132735;27;20035;-72
2021/07/09 09:51:36;;;;;;;9.43;4.35;;;22.00;76.50;;;;;;5122716;27;19914;-72
2021/07/09 09:54:04;;;;;;;8.13;4.15;;;22.10;76.20;;;;;;5114687;27;20031;-73
2021/07/09 09:56:35;;;;;;;7.57;4.88;;;22.10;76.00;;;;;;5125611;27;20160;-72
2021/07/09 09:59:22;;;;;;;7.40;5.22;;;22.20;75.90;;;;;;5125614;27;20027;-71
2021/07/09 10:01:56;;;;;;;8.70;4.40;;;22.20;75.70;;;;;;5122865;27;20039;-72
2021/07/09 10:04:23;;;;;;;7.90;4.97;;;22.20;76.20;;;;;;5127142;27;20023;-71
2021/07/09 10:06:52;;;;;;;8.07;4.50;;;22.20;75.70;;;;;;5128509;27;20057;-71
2021/07/09 10:09:19;;;;;;;5.80;4.32;;;22.20;75.40;;;;;;5115554;28;20093;-71
2021/07/09 10:11:46;;;;;;;8.30;5.32;;;22.20;75.20;;;;;;5133330;27;20359;-71
2021/07/09 10:14:13;;;;;;;7.68;4.97;;;22.40;75.10;;;;;;5126605;27;20462;-71
2021/07/09 10:16:40;;;;;;;8.57;4.82;;;22.40;75.00;;;;;;5129696;27;20032;-72
2021/07/09 10:19:09;;;;;;;6.95;3.83;;;22.40;74.60;;;;;;5121324;27;20031;-71
2021/07/09 10:21:34;;;;;;;6.63;4.03;;;22.50;74.70;;;;;;5117840;28;20037;-71
2021/07/09 10:24:01;;;;;;;8.40;4.80;;;22.50;74.20;;;;;;5115201;28;20348;-71
2021/07/09 10:26:27;;;;;;;7.40;4.03;;;22.60;73.30;;;;;;5120620;27;20027;-71
2021/07/09 10:29:16;;;;;;;8.25;4.32;;;22.60;73.90;;;;;;5134900;27;20012;-71
2021/07/09 10:31:43;;;;;;;7.85;4.32;;;22.70;74.80;;;;;;5114425;28;20023;-73
2021/07/09 10:34:34;;;;;;;10.73;4.47;;;22.70;74.30;;;;;;5125350;27;20041;-72
2021/07/09 10:37:17;;;;;;;7.28;4.00;;;22.80;74.60;;;;;;5095883;28;20028;-74
2021/07/09 10:39:51;;;;;;;6.22;4.20;;;22.80;74.20;;;;;;5112501;27;20494;-73
2021/07/09 10:42:38;;;;;;;8.48;4.25;;;22.80;74.00;;;;;;5121463;27;20047;-71
2021/07/09 10:45:24;;;;;;;7.53;4.30;;;22.90;74.10;;;;;;5117041;27;20043;-71
2021/07/09 10:48:09;;;;;;;10.52;4.18;;;23.00;73.80;;;;;;5116289;27;20027;-71
2021/07/09 10:50:45;;;;;;;10.35;4.22;;;23.00;73.40;;;;;;5113818;27;20040;-74
2021/07/09 10:53:10;;;;;;;7.20;4.50;;;23.00;73.60;;;;;;5111655;27;20031;-73
2021/07/09 10:55:43;;;;;;;9.13;5.47;;;23.10;73.60;;;;;;5110816;28;20039;-76
2021/07/09 10:58:09;;;;;;;;;;;23.10;73.10;;;;;;5114540;28;20028;-74
2021/07/09 11:00:47;;;;;;;6.85;4.40;;;23.10;73.30;;;;;;5110670;27;19911;-74
2021/07/09 11:03:28;;;;;;;6.97;4.47;;;23.20;73.10;;;;;;5116881;27;20055;-74
2021/07/09 11:06:17;;;;;;;5.30;3.85;;;23.20;73.00;;;;;;5113453;28;20067;-75
2021/07/09 11:08:57;;;;;;;8.05;4.45;;;23.30;72.90;;;;;;5112588;28;20081;-74
2021/07/09 11:11:35;;;;;;;5.97;4.50;;;23.20;72.70;;;;;;5111661;28;20028;-75
2021/07/09 11:14:03;;;;;;;9.10;4.43;;;23.30;72.10;;;;;;5111861;27;20481;-75
2021/07/09 11:16:32;;;;;;;6.43;4.07;;;23.30;72.40;;;;;;5121042;27;20024;-75
2021/07/09 11:19:04;;;;;;;6.30;4.25;;;23.30;72.10;;;;;;5112418;27;20043;-74
2021/07/09 11:21:32;;;;;;;9.20;4.75;;;23.40;72.20;;;;;;5108974;28;20051;-74
2021/07/09 11:24:01;;;;;;;7.80;4.43;;;23.40;72.80;;;;;;5116891;27;20113;-75
2021/07/09 11:26:35;;;;;;;7.25;4.97;;;23.40;73.00;;;;;;5124523;27;20042;-75
2021/07/09 11:29:16;;;;;;;7.85;4.68;;;23.40;73.50;;;;;;5124616;27;20023;-75
2021/07/09 11:31:41;;;;;;;7.93;5.13;;;23.40;73.20;;;;;;5122474;27;20038;-75
2021/07/09 11:34:12;;;;;;;6.05;4.10;;;23.50;72.40;;;;;;5121057;27;20405;-75
2021/07/09 11:36:56;;;;;;;5.43;3.72;;;23.50;72.90;;;;;;5120621;27;20453;-75
2021/07/09 11:39:23;;;;;;;8.60;4.05;;;23.60;72.40;;;;;;5121474;27;20031;-75
2021/07/09 11:42:01;;;;;;;8.30;4.68;;;23.50;72.80;;;;;;5115103;27;20492;-74
2021/07/09 11:44:29;;;;;;;7.80;4.78;;;23.60;72.40;;;;;;5121892;27;20024;-74
2021/07/09 11:47:02;;;;;;;8.55;4.45;;;23.60;72.10;;;;;;5117628;27;20023;-75
2021/07/09 11:49:30;;;;;;;8.50;4.18;;;23.70;72.20;;;;;;5120788;27;20549;-75
2021/07/09 11:51:59;;;;;;;13.80;4.35;;;23.70;71.90;;;;;;5124933;27;20073;-75
2021/07/09 11:54:28;;;;;;;6.88;4.85;;;23.70;71.90;;;;;;5118428;27;20023;-75
2021/07/09 11:56:59;;;;;;;6.13;4.43;;;23.80;71.50;;;;;;5121170;27;20439;-75
2021/07/09 11:59:25;;;;;;;7.03;4.20;;;23.80;72.00;;;;;;5117511;27;20466;-75
2021/07/09 12:02:15;;;;;;;6.93;4.28;;;23.80;71.60;;;;;;5113528;27;20130;-74
2021/07/09 12:04:48;;;;;;;10.55;4.05;;;23.90;71.40;;;;;;5120555;27;20024;-75
2021/07/09 12:07:40;;;;;;;;;;;23.90;71.60;;;;;;5119939;27;20031;-74
2021/07/09 12:10:13;;;;;;;7.35;4.78;;;23.90;72.70;;;;;;5110726;27;19907;-72
2021/07/09 12:12:39;;;;;;;;;;;23.90;71.90;;;;;;5120175;27;20035;-74
2021/07/09 12:15:18;;;;;;;7.28;4.70;;;23.90;72.90;;;;;;5111277;27;19904;-72
2021/07/09 12:17:58;;;;;;;7.05;5.00;;;23.90;71.60;;;;;;5109734;28;20437;-72
2021/07/09 12:20:32;;;;;;;8.93;4.75;;;24.00;71.40;;;;;;5118092;27;20061;-72
2021/07/09 12:23:11;;;;;;;6.75;4.63;;;23.90;71.60;;;;;;5095159;28;20125;-72
2021/07/09 12:25:44;;;;;;;7.00;5.32;;;24.00;72.30;;;;;;5108565;27;20414;-72
2021/07/09 12:28:18;;;;;;;7.88;4.28;;;24.00;71.60;;;;;;5115111;27;20081;-72
2021/07/09 12:30:52;;;;;;;9.32;4.97;;;24.00;71.40;;;;;;5111488;28;20070;-72
2021/07/09 12:33:26;;;;;;;6.22;4.43;;;24.10;71.00;;;;;;5106566;28;20028;-72
2021/07/09 12:36:01;;;;;;;6.93;5.18;;;24.10;71.20;;;;;;5107690;28;20526;-72
2021/07/09 12:38:29;;;;;;;12.63;4.68;;;24.20;71.20;;;;;;5107320;27;20027;-72
2021/07/09 12:41:10;;;;;;;6.15;4.18;;;24.20;71.20;;;;;;5114707;28;20027;-72
2021/07/09 12:43:54;;;;;;;6.43;4.20;;;24.20;71.00;;;;;;5122698;28;20141;-72
2021/07/09 12:46:28;;;;;;;;;;;24.30;71.10;;;;;;5116861;28;20606;-72